Terminal Aerodrome Forecast
Issued by NWS

Home | Current Version | Previous Version | Text Only | Print | Product List | Glossary On
Versions: 1 2 3 4 5 6 7 8 9 10 11 12 13 14 15 16 17 18 19 20 21 22 23 24 25 26
000
FTUS43 KABR 212300
TAFATY
TAF
KATY 212328Z 2200/2224 16013KT 1SM BR OVC003
     FM220500 15011KT 1SM BR OVC003
     FM221000 10009KT 1SM -SN BR OVC003=

USA.gov is the U.S. government's official web portal to all federal, state and local government web resources and services.